الصفحة الرئيسية
METAR-TAF:

METAR-TAF

مطار :

مطار برلين تيجيل الدولي

برلين, ألمانيا

دائرة عرض: 52-34N, خط طول: 013-19E, ارتفاع: 37 متر

مراقبة الطقس الحالي

تاريخ ووقت الإصدار 24 دقيقة قبل الساعة 19:50UTC
ريح 5 عقدة من الشرق
درجة الحرارة 25°درجة مئوية
الرطوبة 41%
ضغط 1014 hPa
الرؤية 10 كم أو أكثر
الغيوم لا تقل 1500 م ولا وجود لمزنة ركامية السحاب الأسود

METAR: EDDT 161950Z 10005KT CAVOK 25/11 Q1014 NOSIG

زمن: 22:14 (20:14 UTC)

توقعات

تاريخ ووقت الإصدار 3ساعات و 14 دقيقة قبل الساعة 17:00UTC
التوقعات صالحة من16 الساعة 18 UTC إلى 17 الساعة 18 UTC
ريح 6 عقدة من الشرق/الجنوب الشرقي
الرؤية 10 كم أو أكثر
الغيوم لا تقل 1500 م ولا وجود لمزنة ركامية السحاب الأسود
أصبح
من 17 الساعة 10 UTC إلى 17 الساعة 12 UTC
ريح 7 عقدة من الجنوب الغربي
أصبح
من 17 الساعة 13 UTC إلى 17 الساعة 15 UTC
ريح 8 عقدة من الغرب/الشمال الغربي

TAF: EDDT 161700Z 1618/1718 12006KT CAVOK BECMG 1710/1712 22007KT BECMG 1713/1715 30008KT

أرصاد الطقس والتوقعات من أكثر من 4000 مطار (تقارير الطقس للمطار METAR والتنبؤ بالطقس بالمطارTAF).

المحطات المتاحة هي النقط الصفراء والحمراء على الخريطة.

حرك المؤشر فوق النقطة لمعرفة اسم المحطة.

ثم انقر لمعرفة أرصاد وتوقعات الطقس.

لتغيير الخارطة: اضغط على الأزرار الخضراء مع رمز الصليب الأسود للتكبير. على الزر الأخضر مع شرطة للتصغير، أو على الأسهم الخضراء للخرائط المجاورة.


METAR-TAF: